Weather Models
Both GFS & NAM
00z 06z 12z 18z
24hr Precip
00z 06z 12z 18z
36hr Simulated radar
00z 06z 12z 18z
SKEWT Soundings
00z 12z
Current Conditions (Updated 5:15am on 3/26/19)
Temperature
 37°
-1.73
43°  
37°  
0
10
20
30
40
50
60
70
80
90
100
Dew Point
33°  
9°  
-20
-10
0
10
20
30
40
50
60
70
80
Wind Chill
30°
43°  
26°  
-20
-10
0
10
20
30
40
50
60
70
80
Wind Chill
Humidity
31%
67% 
31% 
0
10
20
30
40
50
60
70
80
90
100
Barometer
30.16
   Steady
30.16  
30.10  
28.00
28.30
28.60
28.90
29.20
29.50
29.80
30.10
30.40
30.70
31.00
Temperature
Dew Point
Humidity
Pressure
Wind
8mph
NNE
Daily Rain
.00
.05
.10
.15
.20
.25
.30
.35
.40
.45
.50
Rain Today
 0.00" 
Month Rain
0.00
0.50
1.00
1.50
2.00
2.50
3.00
3.50
4.00
4.50
5.00
Month Rain
 4.47" 
Year Rain
0.00
2.50
5.00
7.50
10.00
12.50
15.00
17.50
20.00
22.50
25.00
Year Rain
 11.56" 
Sun & Moon Data
Sunrise 6:52am
Sunset 7:16pm
Moonrise 12:40am
Moonset 10:41am
Moon % 72%
Other Rain Data
Past Hour 0.00 Past 24 Hours 0.13
Past 3 Hours 0.00 Past 7 Days 1.51
Past 6 Hours 0.00
Cloud Height
6937


Current Front Map
Current Satellite map
7 Day Forecast
NWS Forecast for Philadelphia PA
National Weather Service Forecast for: Philadelphia PA
Issued by: National Weather Service Philadelphia, PA
Updated: 4:36 am EDT Mar 26, 2019

Philadelphia
 
Today

Today: Sunny, with a high near 48. North wind 10 to 14 mph.
Sunny
Tonight

Tonight: Clear, with a low around 29. North wind 6 to 8 mph.
Clear
Wednesday

Wednesday: Sunny, with a high near 52. North wind around 6 mph becoming light and variable  in the afternoon.
Sunny
Wednesday
Night
Wednesday Night: Mostly clear, with a low around 32. Southeast wind around 6 mph becoming calm  after midnight.
Mostly Clear
Thursday

Thursday: Sunny, with a high near 60. South wind 3 to 8 mph.
Sunny
Thursday
Night
Thursday Night: Partly cloudy, with a low around 45.
Partly Cloudy
Friday

Friday: Partly sunny, with a high near 68.
Partly Sunny
Friday
Night
Friday Night: Mostly cloudy, with a low around 50.
Mostly Cloudy
Saturday

Saturday: Partly sunny, with a high near 73.
Partly Sunny
Hi 48 °F Lo 29 °F Hi 52 °F Lo 32 °F Hi 60 °F Lo 45 °F Hi 68 °F Lo 50 °F Hi 73 °F

 

Today
 
Sunny, with a high near 48. North wind 10 to 14 mph.
Tonight
 
Clear, with a low around 29. North wind 6 to 8 mph.
Wednesday
 
Sunny, with a high near 52. North wind around 6 mph becoming light and variable in the afternoon.
Wednesday Night
 
Mostly clear, with a low around 32. Southeast wind around 6 mph becoming calm after midnight.
Thursday
 
Sunny, with a high near 60. South wind 3 to 8 mph.
Thursday Night
 
Partly cloudy, with a low around 45.
Friday
 
Partly sunny, with a high near 68.
Friday Night
 
Mostly cloudy, with a low around 50.
Saturday
 
Partly sunny, with a high near 73.
Saturday Night
 
A chance of showers after 3am. Mostly cloudy, with a low around 51. Chance of precipitation is 30%.
Sunday
 
A chance of showers. Mostly cloudy, with a high near 64. Chance of precipitation is 40%.
Sunday Night
 
A chance of showers. Mostly cloudy, with a low around 40. Chance of precipitation is 40%.
Monday
 
A chance of showers. Partly sunny, with a high near 55. Chance of precipitation is 30%.

 

Forecast from NOAA-NWS for Philadelphia PA.

Area Weather Current Conditions
Nearby METAR Reports

KPHL - Philadelphia, Pennsylvania
Updated: Tue, 26-Mar-2019 4:54am EDT
Few Clouds
Few Clouds
 Wind from N
Wind: N 14 mph , 22 km/h
Temperature: 36°F , 2°C
Wind Chill: 27°F , -3°C
Dew Point: 10°F , -12°C
Humidity: 35%
Barometer: 30.15 inHg , 1021 hPa
Clouds: Few Clouds
Visibility: 10 miles , 16 km
Cloud details: Few Clouds 8000 ft
2019/03/26 08:54 KPHL 260854Z 36012KT 10SM FEW080 02/M12 A3015 RMK AO2 SLP210 T00171117 53015 $
KMPO - Mt. Pocono, Pennsylvania
Updated: Tue, 26-Mar-2019 4:53am EDT
Clear
Clear
 Wind from N
Wind: N 15 mph , 24 km/h, Gust: 26 mph , 43 km/h
Temperature: 21°F , -6°C
Wind Chill: 7°F , -14°C
Dew Point: 7°F , -14°C
Humidity: 54%
Barometer: 30.08 inHg , 1018.6 hPa
Clouds: Clear
Visibility: 10 miles , 16 km
2019/03/26 08:53 KMPO 260853Z AUTO 35013G23KT 10SM CLR M06/M14 A3008 RMK AO2 SLP206 T10561139 53004
 
KACY - Atlantic City, New Jersey
Updated: Tue, 26-Mar-2019 4:54am EDT
Clear
Clear
 Wind from N
Wind: N 12 mph , 19 km/h
Temperature: 37°F , 3°C
Wind Chill: 29°F , -2°C
Dew Point: 25°F , -4°C
Humidity: 60%
Barometer: 30.09 inHg , 1019 hPa
Clouds: Clear
Visibility: 10 miles , 16 km
2019/03/26 08:54 KACY 260854Z 01010KT 10SM CLR 03/M04 A3009 RMK AO2 SLP191 T00331039 53006
KMIV - Millville, New Jersey
Updated: Tue, 26-Mar-2019 3:54am EDT
NOT Current
Overcast
Overcast
 Wind from N
Wind: N 10 mph , 17 km/h
Temperature: 41°F , 5°C
Wind Chill: 35°F , 2°C
Dew Point: 25°F , -4°C
Humidity: 53%
Barometer: 30.08 inHg , 1018.6 hPa
Clouds: Overcast
Visibility: 10 miles , 16 km
Cloud details: Mostly Cloudy 6500 ft
Overcast 9500 ft
2019/03/26 07:54 KMIV 260754Z AUTO 36009KT 10SM BKN065 OVC095 05/M04 A3008 RMK AO2 SLP183 T00501044
 
KWWD - Wildwood, New Jersey
Updated: Tue, 26-Mar-2019 4:55am EDT
Overcast
Overcast
 Wind from N
Wind: N 14 mph , 22 km/h, Gust: 20 mph , 31 km/h
Temperature: 41°F , 5°C
Wind Chill: 33°F , 1°C
Dew Point: 27°F , -3°C
Humidity: 57%
Barometer: 30.09 inHg , 1019 hPa
Clouds: Overcast
Visibility: 10 miles , 16 km
Cloud details: Overcast 5500 ft
2019/03/26 08:55 KWWD 260855Z AUTO 01012G17KT 10SM OVC055 05/M03 A3009 RMK AO2 SLP191 T00501033 53005
KDOV - Dover Afb, Delaware
Updated: Tue, 26-Mar-2019 4:56am EDT
Overcast
Overcast
 Wind from N
Wind: N 22 mph , 35 km/h, Gust: 25 mph , 41 km/h
Temperature: 41°F , 5°C
Wind Chill: 31°F , -1°C
Dew Point: 19°F , -7°C
Humidity: 42%
Barometer: 30.09 inHg , 1019 hPa
Clouds: Overcast
Visibility: 10 miles , 16 km
Cloud details: Mostly Cloudy 6000 ft
Overcast 9000 ft
2019/03/26 08:56 KDOV 260856Z AUTO 35019G22KT 10SM BKN060 OVC090 05/M07 A3009 RMK AO2 SLP193 T00461075 53003 $
Severe Weather Map